sensor_id;sensor_type;location;lat;lon;timestamp;pressure;altitude;pressure_sealevel;temperature;humidity
74659;BME280;63186;51.204;6.536;2022-10-29T00:02:24;101743.34;;;14.49;88.78
74659;BME280;63186;51.204;6.536;2022-10-29T00:04:49;101743.84;;;14.37;89.22
74659;BME280;63186;51.204;6.536;2022-10-29T00:07:14;101744.28;;;14.31;89.63
74659;BME280;63186;51.204;6.536;2022-10-29T00:09:40;101748.69;;;14.32;89.79
74659;BME280;63186;51.204;6.536;2022-10-29T00:12:05;101751.78;;;14.30;89.44
74659;BME280;63186;51.204;6.536;2022-10-29T00:14:31;101745.91;;;14.32;89.44
74659;BME280;63186;51.204;6.536;2022-10-29T00:16:56;101750.97;;;14.30;89.79
74659;BME280;63186;51.204;6.536;2022-10-29T00:19:22;101750.31;;;14.33;89.79
74659;BME280;63186;51.204;6.536;2022-10-29T00:21:49;101747.88;;;14.31;89.58
74659;BME280;63186;51.204;6.536;2022-10-29T00:24:14;101742.75;;;14.25;89.71
74659;BME280;63186;51.204;6.536;2022-10-29T00:26:40;101748.94;;;14.22;89.91
74659;BME280;63186;51.204;6.536;2022-10-29T00:29:05;101742.38;;;14.18;89.80
74659;BME280;63186;51.204;6.536;2022-10-29T00:31:30;101741.13;;;14.24;90.00
74659;BME280;63186;51.204;6.536;2022-10-29T00:33:56;101740.19;;;14.28;89.88
74659;BME280;63186;51.204;6.536;2022-10-29T00:36:26;101748.56;;;14.37;89.45
74659;BME280;63186;51.204;6.536;2022-10-29T00:38:52;101743.75;;;14.43;88.97
74659;BME280;63186;51.204;6.536;2022-10-29T00:41:23;101743.34;;;14.35;89.15
74659;BME280;63186;51.204;6.536;2022-10-29T00:44:21;101743.78;;;14.29;89.41
74659;BME280;63186;51.204;6.536;2022-10-29T00:46:38;101742.06;;;14.19;89.71
74659;BME280;63186;51.204;6.536;2022-10-29T00:49:05;101736.22;;;14.07;90.00
74659;BME280;63186;51.204;6.536;2022-10-29T00:51:32;101735.34;;;13.98;90.48
74659;BME280;63186;51.204;6.536;2022-10-29T00:54:01;101733.69;;;13.97;90.58
74659;BME280;63186;51.204;6.536;2022-10-29T00:56:30;101736.66;;;14.00;90.78
74659;BME280;63186;51.204;6.536;2022-10-29T00:58:58;101724.75;;;14.00;90.50
74659;BME280;63186;51.204;6.536;2022-10-29T01:01:24;101726.00;;;13.94;90.52
74659;BME280;63186;51.204;6.536;2022-10-29T01:03:50;101730.72;;;13.93;90.64
74659;BME280;63186;51.204;6.536;2022-10-29T01:06:16;101735.53;;;13.88;90.86
74659;BME280;63186;51.204;6.536;2022-10-29T01:08:42;101727.06;;;13.84;91.06
74659;BME280;63186;51.204;6.536;2022-10-29T01:11:38;101739.84;;;13.80;91.49
74659;BME280;63186;51.204;6.536;2022-10-29T01:14:32;101728.59;;;13.76;91.36
74659;BME280;63186;51.204;6.536;2022-10-29T01:19:54;101722.44;;;13.66;91.45
74659;BME280;63186;51.204;6.536;2022-10-29T01:22:49;101724.31;;;13.56;91.40
74659;BME280;63186;51.204;6.536;2022-10-29T01:28:34;101713.03;;;13.39;91.92
74659;BME280;63186;51.204;6.536;2022-10-29T01:31:19;101718.16;;;13.32;92.15
74659;BME280;63186;51.204;6.536;2022-10-29T01:36:34;101726.22;;;13.28;92.38
74659;BME280;63186;51.204;6.536;2022-10-29T01:39:18;101727.25;;;13.33;92.39
74659;BME280;63186;51.204;6.536;2022-10-29T01:41:53;101730.66;;;13.43;91.96
74659;BME280;63186;51.204;6.536;2022-10-29T01:44:42;101728.09;;;13.47;91.59
74659;BME280;63186;51.204;6.536;2022-10-29T01:47:14;101728.41;;;13.45;91.63
74659;BME280;63186;51.204;6.536;2022-10-29T01:49:43;101717.75;;;13.39;91.39
74659;BME280;63186;51.204;6.536;2022-10-29T01:52:12;101713.03;;;13.39;91.49
74659;BME280;63186;51.204;6.536;2022-10-29T01:54:42;101717.75;;;13.39;91.49
74659;BME280;63186;51.204;6.536;2022-10-29T01:57:31;101704.50;;;13.36;91.58
74659;BME280;63186;51.204;6.536;2022-10-29T02:00:06;101695.50;;;13.30;91.10
74659;BME280;63186;51.204;6.536;2022-10-29T02:11:33;101683.41;;;13.26;91.78
74659;BME280;63186;51.204;6.536;2022-10-29T02:14:29;101691.00;;;13.20;91.61
74659;BME280;63186;51.204;6.536;2022-10-29T02:16:57;101681.34;;;13.04;91.74
74659;BME280;63186;51.204;6.536;2022-10-29T02:19:31;101677.44;;;12.91;91.94
74659;BME280;63186;51.204;6.536;2022-10-29T02:21:57;101676.81;;;12.94;92.34
74659;BME280;63186;51.204;6.536;2022-10-29T02:24:23;101676.19;;;12.97;92.45
74659;BME280;63186;51.204;6.536;2022-10-29T02:26:49;101672.72;;;12.92;92.26
74659;BME280;63186;51.204;6.536;2022-10-29T02:29:14;101677.19;;;12.88;92.20
74659;BME280;63186;51.204;6.536;2022-10-29T02:31:40;101683.75;;;12.92;92.45
74659;BME280;63186;51.204;6.536;2022-10-29T02:34:05;101681.50;;;12.94;92.45
74659;BME280;63186;51.204;6.536;2022-10-29T02:36:30;101675.47;;;12.92;92.17
74659;BME280;63186;51.204;6.536;2022-10-29T02:38:56;101666.47;;;12.86;92.34
74659;BME280;63186;51.204;6.536;2022-10-29T02:41:21;101657.63;;;12.84;92.32
74659;BME280;63186;51.204;6.536;2022-10-29T02:43:46;101657.75;;;12.79;92.26
74659;BME280;63186;51.204;6.536;2022-10-29T02:46:17;101661.41;;;12.74;92.84
74659;BME280;63186;51.204;6.536;2022-10-29T02:48:43;101661.09;;;12.76;93.03
74659;BME280;63186;51.204;6.536;2022-10-29T02:51:08;101658.66;;;12.74;92.86
74659;BME280;63186;51.204;6.536;2022-10-29T02:53:34;101662.66;;;12.82;92.66
74659;BME280;63186;51.204;6.536;2022-10-29T02:55:59;101660.09;;;12.86;92.39
74659;BME280;63186;51.204;6.536;2022-10-29T02:58:24;101657.53;;;12.89;92.64
74659;BME280;63186;51.204;6.536;2022-10-29T03:00:50;101666.06;;;12.93;92.12
74659;BME280;63186;51.204;6.536;2022-10-29T03:03:16;101656.00;;;12.83;92.06
74659;BME280;63186;51.204;6.536;2022-10-29T03:05:41;101653.03;;;12.80;92.14
74659;BME280;63186;51.204;6.536;2022-10-29T03:08:06;101650.78;;;12.82;92.69
74659;BME280;63186;51.204;6.536;2022-10-29T03:10:32;101651.69;;;12.91;92.20
74659;BME280;63186;51.204;6.536;2022-10-29T03:12:58;101649.25;;;12.89;92.61
74659;BME280;63186;51.204;6.536;2022-10-29T03:15:23;101644.75;;;12.93;92.45
74659;BME280;63186;51.204;6.536;2022-10-29T03:17:48;101653.78;;;12.99;92.57
74659;BME280;63186;51.204;6.536;2022-10-29T03:20:14;101638.72;;;12.91;92.38
74659;BME280;63186;51.204;6.536;2022-10-29T03:22:39;101641.28;;;12.88;92.47
74659;BME280;63186;51.204;6.536;2022-10-29T03:25:05;101642.00;;;12.93;92.66
74659;BME280;63186;51.204;6.536;2022-10-29T03:27:30;101643.97;;;13.07;92.57
74659;BME280;63186;51.204;6.536;2022-10-29T03:29:55;101629.00;;;13.08;92.12
74659;BME280;63186;51.204;6.536;2022-10-29T03:32:21;101626.34;;;13.02;92.19
74659;BME280;63186;51.204;6.536;2022-10-29T03:34:46;101625.81;;;13.00;92.28
74659;BME280;63186;51.204;6.536;2022-10-29T03:37:11;101629.41;;;13.01;92.46
74659;BME280;63186;51.204;6.536;2022-10-29T03:39:36;101617.44;;;13.06;92.42
74659;BME280;63186;51.204;6.536;2022-10-29T03:42:02;101615.59;;;13.01;92.26
74659;BME280;63186;51.204;6.536;2022-10-29T03:44:28;101601.03;;;12.95;92.50
74659;BME280;63186;51.204;6.536;2022-10-29T03:46:53;101603.09;;;12.90;92.98
74659;BME280;63186;51.204;6.536;2022-10-29T03:49:18;101614.69;;;12.92;92.90
74659;BME280;63186;51.204;6.536;2022-10-29T03:51:43;101621.53;;;12.94;92.99
74659;BME280;63186;51.204;6.536;2022-10-29T03:54:09;101617.63;;;12.95;92.66
74659;BME280;63186;51.204;6.536;2022-10-29T03:56:34;101602.81;;;12.91;92.59
74659;BME280;63186;51.204;6.536;2022-10-29T03:58:59;101611.69;;;12.74;92.65
74659;BME280;63186;51.204;6.536;2022-10-29T04:01:25;101616.47;;;12.69;93.44
74659;BME280;63186;51.204;6.536;2022-10-29T04:03:50;101617.50;;;12.73;93.72
74659;BME280;63186;51.204;6.536;2022-10-29T04:06:15;101635.44;;;12.89;93.37
74659;BME280;63186;51.204;6.536;2022-10-29T04:08:42;101629.41;;;13.01;92.87
74659;BME280;63186;51.204;6.536;2022-10-29T04:11:10;101617.13;;;13.07;92.73
74659;BME280;63186;51.204;6.536;2022-10-29T04:13:35;101618.97;;;13.12;92.18
74659;BME280;63186;51.204;6.536;2022-10-29T04:16:01;101619.06;;;12.93;92.25
74659;BME280;63186;51.204;6.536;2022-10-29T04:18:26;101612.31;;;12.99;92.68
74659;BME280;63186;51.204;6.536;2022-10-29T04:20:51;101607.31;;;13.01;92.66
74659;BME280;63186;51.204;6.536;2022-10-29T04:23:17;101598.19;;;13.00;92.47
74659;BME280;63186;51.204;6.536;2022-10-29T04:25:53;101595.75;;;12.99;92.46
74659;BME280;63186;51.204;6.536;2022-10-29T04:28:18;101592.56;;;13.06;92.77
74659;BME280;63186;51.204;6.536;2022-10-29T04:30:43;101596.16;;;13.06;92.51
74659;BME280;63186;51.204;6.536;2022-10-29T04:33:09;101595.13;;;13.02;92.57
74659;BME280;63186;51.204;6.536;2022-10-29T04:35:34;101591.53;;;13.01;92.80
74659;BME280;63186;51.204;6.536;2022-10-29T04:38:06;101586.41;;;13.09;92.94
74659;BME280;63186;51.204;6.536;2022-10-29T04:40:31;101583.31;;;13.10;92.58
74659;BME280;63186;51.204;6.536;2022-10-29T04:42:57;101573.72;;;13.08;92.78
74659;BME280;63186;51.204;6.536;2022-10-29T04:45:22;101558.16;;;13.12;92.61
74659;BME280;63186;51.204;6.536;2022-10-29T04:47:48;101550.06;;;13.01;92.61
74659;BME280;63186;51.204;6.536;2022-10-29T04:50:13;101559.00;;;12.98;92.82
74659;BME280;63186;51.204;6.536;2022-10-29T04:52:38;101561.53;;;13.09;93.04
74659;BME280;63186;51.204;6.536;2022-10-29T04:55:04;101567.88;;;13.09;92.62
74659;BME280;63186;51.204;6.536;2022-10-29T04:57:29;101582.22;;;13.11;92.42
74659;BME280;63186;51.204;6.536;2022-10-29T04:59:54;101585.41;;;13.18;92.94
74659;BME280;63186;51.204;6.536;2022-10-29T05:02:19;101590.81;;;13.23;92.63
74659;BME280;63186;51.204;6.536;2022-10-29T05:04:45;101582.75;;;13.27;92.58
74659;BME280;63186;51.204;6.536;2022-10-29T05:07:10;101557.44;;;13.20;92.15
74659;BME280;63186;51.204;6.536;2022-10-29T05:09:35;101563.91;;;13.01;92.39
74659;BME280;63186;51.204;6.536;2022-10-29T05:12:00;101569.31;;;12.93;92.88
74659;BME280;63186;51.204;6.536;2022-10-29T05:14:26;101572.09;;;12.93;93.42
74659;BME280;63186;51.204;6.536;2022-10-29T05:16:51;101568.59;;;13.01;93.38
74659;BME280;63186;51.204;6.536;2022-10-29T05:19:16;101554.19;;;13.04;93.11
74659;BME280;63186;51.204;6.536;2022-10-29T05:21:41;101558.25;;;13.07;93.07
74659;BME280;63186;51.204;6.536;2022-10-29T05:24:07;101558.97;;;13.12;92.88
74659;BME280;63186;51.204;6.536;2022-10-29T05:26:32;101557.53;;;13.15;92.70
74659;BME280;63186;51.204;6.536;2022-10-29T05:28:57;101555.50;;;13.20;92.59
74659;BME280;63186;51.204;6.536;2022-10-29T05:31:23;101562.06;;;13.24;92.74
74659;BME280;63186;51.204;6.536;2022-10-29T05:33:48;101560.13;;;13.25;92.48
74659;BME280;63186;51.204;6.536;2022-10-29T05:36:13;101574.53;;;13.36;92.76
74659;BME280;63186;51.204;6.536;2022-10-29T05:38:38;101567.75;;;13.42;92.39
74659;BME280;63186;51.204;6.536;2022-10-29T05:41:04;101566.03;;;13.46;92.21
74659;BME280;63186;51.204;6.536;2022-10-29T05:43:29;101558.13;;;13.53;92.21
74659;BME280;63186;51.204;6.536;2022-10-29T05:45:54;101551.75;;;13.52;92.14
74659;BME280;63186;51.204;6.536;2022-10-29T05:48:20;101540.31;;;13.45;92.52
74659;BME280;63186;51.204;6.536;2022-10-29T05:50:45;101558.75;;;13.50;92.47
74659;BME280;63186;51.204;6.536;2022-10-29T05:53:12;101554.53;;;13.52;92.43
74659;BME280;63186;51.204;6.536;2022-10-29T05:55:38;101543.25;;;13.49;92.55
74659;BME280;63186;51.204;6.536;2022-10-29T05:58:09;101534.66;;;13.50;92.48
74659;BME280;63186;51.204;6.536;2022-10-29T06:00:37;101530.06;;;13.46;92.41
74659;BME280;63186;51.204;6.536;2022-10-29T06:03:03;101537.66;;;13.40;92.60
74659;BME280;63186;51.204;6.536;2022-10-29T06:05:28;101540.63;;;13.44;92.67
74659;BME280;63186;51.204;6.536;2022-10-29T06:07:55;101539.78;;;13.57;92.66
74659;BME280;63186;51.204;6.536;2022-10-29T06:10:21;101536.88;;;13.62;92.30
74659;BME280;63186;51.204;6.536;2022-10-29T06:12:47;101540.78;;;13.61;92.25
74659;BME280;63186;51.204;6.536;2022-10-29T06:15:12;101532.78;;;13.60;92.21
74659;BME280;63186;51.204;6.536;2022-10-29T06:17:41;101525.63;;;13.58;92.45
74659;BME280;63186;51.204;6.536;2022-10-29T06:20:08;101523.34;;;13.61;92.33
74659;BME280;63186;51.204;6.536;2022-10-29T06:22:34;101526.31;;;13.64;92.22
74659;BME280;63186;51.204;6.536;2022-10-29T06:24:59;101528.88;;;13.61;92.36
74659;BME280;63186;51.204;6.536;2022-10-29T06:27:25;101529.38;;;13.63;92.18
74659;BME280;63186;51.204;6.536;2022-10-29T06:29:50;101525.38;;;13.69;92.13
74659;BME280;63186;51.204;6.536;2022-10-29T06:32:16;101517.91;;;13.69;91.97
74659;BME280;63186;51.204;6.536;2022-10-29T06:34:41;101528.34;;;13.72;91.90
74659;BME280;63186;51.204;6.536;2022-10-29T06:37:06;101531.00;;;13.77;91.67
74659;BME280;63186;51.204;6.536;2022-10-29T06:39:31;101539.47;;;13.81;91.57
74659;BME280;63186;51.204;6.536;2022-10-29T06:41:57;101528.09;;;13.82;91.35
74659;BME280;63186;51.204;6.536;2022-10-29T06:44:22;101519.91;;;13.77;91.30
74659;BME280;63186;51.204;6.536;2022-10-29T06:46:47;101539.84;;;13.88;91.28
74659;BME280;63186;51.204;6.536;2022-10-29T06:49:12;101544.28;;;13.89;91.32
74659;BME280;63186;51.204;6.536;2022-10-29T06:51:38;101539.22;;;13.91;91.19
74659;BME280;63186;51.204;6.536;2022-10-29T06:54:03;101532.22;;;13.94;90.91
74659;BME280;63186;51.204;6.536;2022-10-29T06:56:28;101541.44;;;14.03;90.77
74659;BME280;63186;51.204;6.536;2022-10-29T06:58:54;101550.59;;;14.12;90.14
74659;BME280;63186;51.204;6.536;2022-10-29T07:01:19;101552.59;;;14.20;89.90
74659;BME280;63186;51.204;6.536;2022-10-29T07:03:44;101548.56;;;14.26;89.54
74659;BME280;63186;51.204;6.536;2022-10-29T07:06:10;101541.78;;;14.32;89.35
74659;BME280;63186;51.204;6.536;2022-10-29T07:08:35;101546.53;;;14.40;89.09
74659;BME280;63186;51.204;6.536;2022-10-29T07:11:00;101544.84;;;14.53;88.57
74659;BME280;63186;51.204;6.536;2022-10-29T07:13:27;101547.38;;;14.72;87.99
74659;BME280;63186;51.204;6.536;2022-10-29T07:15:52;101547.78;;;14.88;87.46
74659;BME280;63186;51.204;6.536;2022-10-29T07:18:17;101546.50;;;15.03;86.56
74659;BME280;63186;51.204;6.536;2022-10-29T07:20:44;101555.84;;;15.24;85.83
74659;BME280;63186;51.204;6.536;2022-10-29T07:23:10;101557.97;;;15.18;85.48
74659;BME280;63186;51.204;6.536;2022-10-29T07:25:37;101562.88;;;15.13;86.14
74659;BME280;63186;51.204;6.536;2022-10-29T07:28:03;101556.84;;;15.28;85.64
74659;BME280;63186;51.204;6.536;2022-10-29T07:30:29;101564.38;;;15.28;85.58
74659;BME280;63186;51.204;6.536;2022-10-29T07:32:54;101558.56;;;15.64;84.32
74659;BME280;63186;51.204;6.536;2022-10-29T07:35:20;101559.53;;;16.02;82.60
74659;BME280;63186;51.204;6.536;2022-10-29T07:37:45;101563.41;;;16.27;81.77
74659;BME280;63186;51.204;6.536;2022-10-29T07:40:11;101550.34;;;16.28;81.20
74659;BME280;63186;51.204;6.536;2022-10-29T07:42:36;101548.13;;;15.78;83.60
74659;BME280;63186;51.204;6.536;2022-10-29T07:45:02;101545.13;;;15.48;84.11
74659;BME280;63186;51.204;6.536;2022-10-29T07:47:27;101552.78;;;15.34;85.17
74659;BME280;63186;51.204;6.536;2022-10-29T07:49:52;101561.41;;;15.24;85.31
74659;BME280;63186;51.204;6.536;2022-10-29T07:52:17;101549.81;;;15.13;85.39
74659;BME280;63186;51.204;6.536;2022-10-29T07:54:43;101552.72;;;15.08;85.75
74659;BME280;63186;51.204;6.536;2022-10-29T07:57:08;101549.16;;;15.08;85.67
74659;BME280;63186;51.204;6.536;2022-10-29T07:59:33;101538.06;;;15.08;85.68
74659;BME280;63186;51.204;6.536;2022-10-29T08:01:58;101541.50;;;15.13;85.63
74659;BME280;63186;51.204;6.536;2022-10-29T08:04:24;101550.50;;;15.28;85.02
74659;BME280;63186;51.204;6.536;2022-10-29T08:06:49;101554.94;;;15.46;84.57
74659;BME280;63186;51.204;6.536;2022-10-29T08:09:14;101553.47;;;15.57;83.90
74659;BME280;63186;51.204;6.536;2022-10-29T08:11:40;101555.28;;;15.62;83.80
74659;BME280;63186;51.204;6.536;2022-10-29T08:14:05;101550.22;;;15.64;83.45
74659;BME280;63186;51.204;6.536;2022-10-29T08:16:30;101550.84;;;15.61;83.90
74659;BME280;63186;51.204;6.536;2022-10-29T08:18:56;101537.63;;;15.58;83.97
74659;BME280;63186;51.204;6.536;2022-10-29T08:21:21;101532.25;;;15.61;84.01
74659;BME280;63186;51.204;6.536;2022-10-29T08:23:47;101527.06;;;15.68;84.03
74659;BME280;63186;51.204;6.536;2022-10-29T08:26:12;101537.16;;;15.82;83.84
74659;BME280;63186;51.204;6.536;2022-10-29T08:28:37;101535.38;;;15.94;82.58
74659;BME280;63186;51.204;6.536;2022-10-29T08:31:02;101534.06;;;16.00;82.67
74659;BME280;63186;51.204;6.536;2022-10-29T08:33:28;101547.91;;;16.09;82.65
74659;BME280;63186;51.204;6.536;2022-10-29T08:35:53;101539.41;;;16.14;82.07
74659;BME280;63186;51.204;6.536;2022-10-29T08:38:19;101533.22;;;16.17;81.83
74659;BME280;63186;51.204;6.536;2022-10-29T08:44:17;101536.09;;;16.29;82.25
74659;BME280;63186;51.204;6.536;2022-10-29T08:46:48;101534.28;;;16.42;82.05
74659;BME280;63186;51.204;6.536;2022-10-29T08:49:25;101542.59;;;16.51;81.06
74659;BME280;63186;51.204;6.536;2022-10-29T08:52:02;101544.19;;;16.61;80.52
74659;BME280;63186;51.204;6.536;2022-10-29T08:54:30;101537.47;;;16.62;80.39
74659;BME280;63186;51.204;6.536;2022-10-29T08:57:04;101532.22;;;16.77;80.26
74659;BME280;63186;51.204;6.536;2022-10-29T08:59:35;101532.03;;;16.83;80.41
74659;BME280;63186;51.204;6.536;2022-10-29T09:02:02;101528.41;;;16.82;80.15
74659;BME280;63186;51.204;6.536;2022-10-29T09:04:35;101525.97;;;16.80;80.12
74659;BME280;63186;51.204;6.536;2022-10-29T09:21:05;101539.81;;;19.82;69.68
74659;BME280;63186;51.204;6.536;2022-10-29T09:26:46;101526.28;;;19.96;67.97
74659;BME280;63186;51.204;6.536;2022-10-29T09:29:24;101525.44;;;19.68;69.31
74659;BME280;63186;51.204;6.536;2022-10-29T09:32:01;101519.88;;;18.91;71.94
74659;BME280;63186;51.204;6.536;2022-10-29T09:34:30;101519.38;;;18.77;72.68
74659;BME280;63186;51.204;6.536;2022-10-29T09:36:57;101513.56;;;19.06;72.01
74659;BME280;63186;51.204;6.536;2022-10-29T09:39:36;101523.19;;;19.21;71.22
74659;BME280;63186;51.204;6.536;2022-10-29T09:42:36;101516.00;;;19.08;70.59
74659;BME280;63186;51.204;6.536;2022-10-29T09:45:06;101515.69;;;18.73;73.68
74659;BME280;63186;51.204;6.536;2022-10-29T09:47:55;101518.88;;;18.50;74.70
74659;BME280;63186;51.204;6.536;2022-10-29T09:50:32;101513.97;;;18.35;75.23
74659;BME280;63186;51.204;6.536;2022-10-29T09:53:00;101518.72;;;18.34;75.34
74659;BME280;63186;51.204;6.536;2022-10-29T09:55:37;101521.47;;;18.22;75.90
74659;BME280;63186;51.204;6.536;2022-10-29T09:58:04;101514.09;;;18.05;76.33
74659;BME280;63186;51.204;6.536;2022-10-29T10:00:30;101512.59;;;17.96;76.68
74659;BME280;63186;51.204;6.536;2022-10-29T10:05:27;101507.31;;;18.73;74.16
74659;BME280;63186;51.204;6.536;2022-10-29T10:08:13;101510.78;;;18.94;74.27
74659;BME280;63186;51.204;6.536;2022-10-29T10:10:51;101506.50;;;18.72;74.18
74659;BME280;63186;51.204;6.536;2022-10-29T10:13:23;101510.03;;;18.48;74.90
74659;BME280;63186;51.204;6.536;2022-10-29T10:15:51;101510.22;;;18.31;76.09
74659;BME280;63186;51.204;6.536;2022-10-29T10:21:06;101517.53;;;18.23;75.49
74659;BME280;63186;51.204;6.536;2022-10-29T10:23:45;101507.34;;;18.27;76.04
74659;BME280;63186;51.204;6.536;2022-10-29T10:29:15;101484.94;;;18.36;75.19
74659;BME280;63186;51.204;6.536;2022-10-29T10:32:27;101489.34;;;18.49;75.62
74659;BME280;63186;51.204;6.536;2022-10-29T10:39:44;101497.97;;;19.17;73.16
74659;BME280;63186;51.204;6.536;2022-10-29T10:42:32;101502.22;;;19.39;72.04
74659;BME280;63186;51.204;6.536;2022-10-29T10:45:13;101509.66;;;19.47;71.55
74659;BME280;63186;51.204;6.536;2022-10-29T10:47:49;101489.22;;;19.31;71.37
74659;BME280;63186;51.204;6.536;2022-10-29T10:50:32;101490.25;;;19.39;72.34
74659;BME280;63186;51.204;6.536;2022-10-29T10:53:02;101486.34;;;19.56;71.00
74659;BME280;63186;51.204;6.536;2022-10-29T10:55:33;101485.53;;;19.55;71.09
74659;BME280;63186;51.204;6.536;2022-10-29T11:00:56;101485.13;;;19.41;70.68
74659;BME280;63186;51.204;6.536;2022-10-29T11:03:35;101481.66;;;19.32;72.06
74659;BME280;63186;51.204;6.536;2022-10-29T11:06:06;101484.66;;;19.39;72.00
74659;BME280;63186;51.204;6.536;2022-10-29T11:08:41;101475.28;;;19.31;71.20
74659;BME280;63186;51.204;6.536;2022-10-29T11:11:14;101471.47;;;19.23;71.80
74659;BME280;63186;51.204;6.536;2022-10-29T11:13:41;101469.59;;;19.15;71.37
74659;BME280;63186;51.204;6.536;2022-10-29T11:16:15;101467.03;;;19.10;71.44
74659;BME280;63186;51.204;6.536;2022-10-29T11:19:23;101472.75;;;19.14;71.92
74659;BME280;63186;51.204;6.536;2022-10-29T11:24:37;101470.97;;;19.21;71.72
74659;BME280;63186;51.204;6.536;2022-10-29T11:27:19;101472.38;;;19.15;71.47
74659;BME280;63186;51.204;6.536;2022-10-29T11:29:56;101469.50;;;19.12;71.85
74659;BME280;63186;51.204;6.536;2022-10-29T11:32:32;101477.72;;;19.20;71.56
74659;BME280;63186;51.204;6.536;2022-10-29T11:42:45;101467.59;;;19.28;71.54
74659;BME280;63186;51.204;6.536;2022-10-29T11:45:13;101472.00;;;19.29;71.22
74659;BME280;63186;51.204;6.536;2022-10-29T11:48:15;101465.72;;;19.32;72.39
74659;BME280;63186;51.204;6.536;2022-10-29T11:50:51;101455.13;;;19.38;71.46
74659;BME280;63186;51.204;6.536;2022-10-29T11:56:24;101445.06;;;19.49;70.69
74659;BME280;63186;51.204;6.536;2022-10-29T11:59:10;101443.63;;;19.55;70.92
74659;BME280;63186;51.204;6.536;2022-10-29T12:01:56;101432.06;;;19.41;70.95
74659;BME280;63186;51.204;6.536;2022-10-29T12:07:21;101440.25;;;19.34;72.76
74659;BME280;63186;51.204;6.536;2022-10-29T12:13:04;101433.06;;;19.48;72.01
74659;BME280;63186;51.204;6.536;2022-10-29T12:15:42;101433.88;;;19.61;72.19
74659;BME280;63186;51.204;6.536;2022-10-29T12:20:43;101424.00;;;19.79;71.80
74659;BME280;63186;51.204;6.536;2022-10-29T12:26:38;101427.25;;;19.82;70.79
74659;BME280;63186;51.204;6.536;2022-10-29T12:29:24;101421.78;;;19.85;70.87
74659;BME280;63186;51.204;6.536;2022-10-29T12:32:05;101417.72;;;19.83;70.59
74659;BME280;63186;51.204;6.536;2022-10-29T12:34:48;101419.22;;;19.80;70.88
74659;BME280;63186;51.204;6.536;2022-10-29T12:37:36;101411.84;;;19.72;71.21
74659;BME280;63186;51.204;6.536;2022-10-29T12:40:17;101402.59;;;19.84;71.43
74659;BME280;63186;51.204;6.536;2022-10-29T12:42:44;101408.28;;;20.03;71.19
74659;BME280;63186;51.204;6.536;2022-10-29T12:48:07;101402.13;;;20.13;70.48
74659;BME280;63186;51.204;6.536;2022-10-29T12:54:05;101402.03;;;19.94;69.04
74659;BME280;63186;51.204;6.536;2022-10-29T12:56:37;101398.16;;;19.83;69.75
74659;BME280;63186;51.204;6.536;2022-10-29T12:59:35;101397.63;;;19.77;70.98
74659;BME280;63186;51.204;6.536;2022-10-29T13:02:25;101399.94;;;19.75;70.71
74659;BME280;63186;51.204;6.536;2022-10-29T13:07:35;101391.38;;;19.68;71.03
74659;BME280;63186;51.204;6.536;2022-10-29T13:15:44;101373.16;;;19.74;71.07
74659;BME280;63186;51.204;6.536;2022-10-29T13:20:42;101365.25;;;19.76;71.41
74659;BME280;63186;51.204;6.536;2022-10-29T13:25:48;101362.56;;;19.95;71.61
74659;BME280;63186;51.204;6.536;2022-10-29T13:30:43;101350.31;;;20.16;70.93
74659;BME280;63186;51.204;6.536;2022-10-29T13:41:20;101340.28;;;20.30;69.84
74659;BME280;63186;51.204;6.536;2022-10-29T13:44:12;101334.25;;;20.28;70.77
74659;BME280;63186;51.204;6.536;2022-10-29T13:47:03;101341.81;;;20.28;70.97
74659;BME280;63186;51.204;6.536;2022-10-29T13:49:45;101337.75;;;20.25;70.58
74659;BME280;63186;51.204;6.536;2022-10-29T13:52:17;101338.13;;;20.24;71.65
74659;BME280;63186;51.204;6.536;2022-10-29T13:59:53;101331.81;;;20.11;71.43
74659;BME280;63186;51.204;6.536;2022-10-29T14:15:38;101325.41;;;19.95;71.94
74659;BME280;63186;51.204;6.536;2022-10-29T14:18:25;101321.53;;;19.99;71.10
74659;BME280;63186;51.204;6.536;2022-10-29T14:20:55;101322.44;;;20.03;71.23
74659;BME280;63186;51.204;6.536;2022-10-29T14:23:21;101313.69;;;20.05;71.08
74659;BME280;63186;51.204;6.536;2022-10-29T14:25:55;101318.56;;;20.08;70.49
74659;BME280;63186;51.204;6.536;2022-10-29T14:28:33;101317.84;;;20.11;69.39
74659;BME280;63186;51.204;6.536;2022-10-29T14:30:59;101313.50;;;20.14;69.63
74659;BME280;63186;51.204;6.536;2022-10-29T14:33:31;101304.50;;;20.04;69.48
74659;BME280;63186;51.204;6.536;2022-10-29T14:36:20;101299.13;;;19.96;69.77
74659;BME280;63186;51.204;6.536;2022-10-29T14:38:52;101299.00;;;19.92;69.68
74659;BME280;63186;51.204;6.536;2022-10-29T14:41:19;101301.38;;;19.90;70.63
74659;BME280;63186;51.204;6.536;2022-10-29T14:44:13;101298.41;;;19.83;69.30
74659;BME280;63186;51.204;6.536;2022-10-29T14:46:41;101291.53;;;19.81;70.47
74659;BME280;63186;51.204;6.536;2022-10-29T14:54:40;101294.38;;;19.52;70.94
74659;BME280;63186;51.204;6.536;2022-10-29T14:57:10;101305.66;;;19.56;70.96
74659;BME280;63186;51.204;6.536;2022-10-29T14:59:38;101299.41;;;19.47;71.21
74659;BME280;63186;51.204;6.536;2022-10-29T15:02:11;101292.47;;;19.41;71.04
74659;BME280;63186;51.204;6.536;2022-10-29T15:04:55;101305.63;;;19.40;71.27
74659;BME280;63186;51.204;6.536;2022-10-29T15:10:02;101306.78;;;19.23;71.43
74659;BME280;63186;51.204;6.536;2022-10-29T15:12:35;101305.59;;;19.24;71.76
74659;BME280;63186;51.204;6.536;2022-10-29T15:17:32;101301.56;;;19.10;72.00
74659;BME280;63186;51.204;6.536;2022-10-29T15:19:58;101309.13;;;19.09;71.56
74659;BME280;63186;51.204;6.536;2022-10-29T15:22:38;101302.66;;;19.05;71.80
74659;BME280;63186;51.204;6.536;2022-10-29T15:25:21;101305.59;;;18.96;71.51